Time;durP1;ratioP1;P1;durP2;ratioP2;P2;SDS_P1;SDS_P2;PMS_P1;PMS_P2;Temp;Humidity;BMP_temperature;BMP_pressure;BME280_temperature;BME280_humidity;BME280_pressure;Samples;Min_cycle;Max_cycle;Signal;HPM_P1;HPM_P2
2021/11/19 00:00:44;;;;;;;23.33;15.80;;;11.10;99.90;;;;;;5035198;28;20434;-51
2021/11/19 00:03:11;;;;;;;17.43;13.77;;;11.40;99.90;;;;;;5035402;28;20446;-50
2021/11/19 00:05:40;;;;;;;27.00;14.33;;;11.50;99.90;;;;;;5035288;28;20428;-50
2021/11/19 00:08:07;;;;;;;21.80;14.70;;;11.10;99.90;;;;;;5034750;28;20848;-51
2021/11/19 00:10:35;;;;;;;22.83;15.70;;;11.20;99.90;;;;;;5035366;28;20452;-50
2021/11/19 00:13:01;;;;;;;22.17;14.90;;;11.80;99.90;;;;;;5035222;28;20407;-50
2021/11/19 00:15:30;;;;;;;18.20;14.67;;;11.20;99.90;;;;;;5035495;28;20589;-50
2021/11/19 00:17:57;;;;;;;18.60;15.67;;;11.50;99.90;;;;;;5034317;28;20444;-50
2021/11/19 00:20:28;;;;;;;21.93;15.73;;;11.40;99.90;;;;;;5034644;28;20694;-50
2021/11/19 00:22:56;;;;;;;19.40;14.20;;;11.50;99.90;;;;;;5035261;28;20442;-50
2021/11/19 00:25:23;;;;;;;25.27;17.23;;;11.50;99.90;;;;;;5034627;28;20410;-50
2021/11/19 00:27:50;;;;;;;22.50;16.23;;;11.30;99.90;;;;;;5034447;28;20787;-50
2021/11/19 00:30:18;;;;;;;27.37;16.50;;;11.80;99.90;;;;;;5034723;28;20457;-50
2021/11/19 00:32:49;;;;;;;17.87;16.00;;;11.50;99.90;;;;;;5036228;28;20441;-47
2021/11/19 00:35:18;;;;;;;19.40;15.23;;;11.90;99.90;;;;;;5034451;28;20461;-48
2021/11/19 00:37:47;;;;;;;20.20;14.37;;;11.50;99.90;;;;;;5034249;28;20455;-49
2021/11/19 00:40:18;;;;;;;19.40;14.27;;;11.50;99.90;;;;;;5016701;28;20499;-49
2021/11/19 00:42:45;;;;;;;18.67;14.53;;;11.30;99.90;;;;;;5016809;28;20803;-48
2021/11/19 00:45:13;;;;;;;20.90;14.27;;;11.80;99.90;;;;;;5034908;28;20435;-51
2021/11/19 00:47:39;;;;;;;17.33;14.40;;;11.70;99.90;;;;;;5033945;28;20580;-50
2021/11/19 00:50:09;;;;;;;19.50;14.60;;;11.20;99.90;;;;;;5034422;28;20464;-50
2021/11/19 00:52:36;;;;;;;19.83;15.00;;;11.40;99.90;;;;;;5016679;28;20423;-49
2021/11/19 00:55:05;;;;;;;19.50;15.83;;;11.90;99.90;;;;;;5034403;28;20951;-51
2021/11/19 00:57:33;;;;;;;19.07;16.97;;;11.60;99.90;;;;;;5034140;28;20471;-51
2021/11/19 00:59:59;;;;;;;27.67;19.37;;;11.60;99.90;;;;;;5016078;28;20477;-49
2021/11/19 01:02:27;;;;;;;29.17;19.10;;;11.50;99.90;;;;;;5016362;28;20454;-51
2021/11/19 01:04:59;;;;;;;26.80;19.90;;;11.60;99.90;;;;;;5016244;28;20905;-50
2021/11/19 01:07:28;;;;;;;27.20;20.23;;;11.60;99.90;;;;;;5016508;28;20812;-50
2021/11/19 01:09:57;;;;;;;25.73;18.50;;;11.70;99.90;;;;;;5015433;28;20952;-50
2021/11/19 01:12:27;;;;;;;24.37;18.53;;;11.90;99.90;;;;;;5015783;28;20500;-50
2021/11/19 01:14:59;;;;;;;21.77;18.27;;;11.60;99.90;;;;;;5016295;28;20441;-50
2021/11/19 01:17:31;;;;;;;24.90;17.70;;;11.50;99.90;;;;;;5016058;28;21017;-50
2021/11/19 01:20:01;;;;;;;24.50;17.93;;;11.40;99.90;;;;;;5015661;28;20481;-48
2021/11/19 01:22:32;;;;;;;29.33;18.77;;;11.90;99.90;;;;;;5016107;28;20444;-51
2021/11/19 01:24:59;;;;;;;25.10;18.13;;;11.70;99.90;;;;;;5016290;28;20456;-49
2021/11/19 01:27:26;;;;;;;22.03;16.67;;;11.40;99.90;;;;;;5033608;28;20448;-48
2021/11/19 01:29:55;;;;;;;24.17;16.97;;;11.60;99.90;;;;;;5015649;28;20452;-49
2021/11/19 01:32:24;;;;;;;26.30;17.23;;;11.50;99.90;;;;;;5015804;28;21023;-49
2021/11/19 01:35:11;;;;;;;24.50;17.73;;;12.00;99.90;;;;;;5034130;28;20452;-49
2021/11/19 01:38:00;;;;;;;19.20;16.37;;;12.10;99.90;;;;;;5032101;28;20441;-49
2021/11/19 01:40:46;;;;;;;19.10;16.13;;;11.70;99.90;;;;;;5015732;28;20490;-50
2021/11/19 01:43:26;;;;;;;23.90;17.90;;;11.70;99.90;;;;;;5015642;28;20440;-49
2021/11/19 01:46:01;;;;;;;24.67;17.70;;;11.20;99.90;;;;;;5015505;28;21125;-49
2021/11/19 01:48:39;;;;;;;23.90;17.30;;;11.40;99.90;;;;;;5015267;28;20482;-50
2021/11/19 01:51:11;;;;;;;22.00;18.37;;;11.80;99.90;;;;;;5015682;28;20508;-49
2021/11/19 01:53:41;;;;;;;20.90;18.07;;;11.80;99.90;;;;;;5015703;28;20481;-49
2021/11/19 01:56:12;;;;;;;19.80;16.73;;;11.90;99.90;;;;;;5015470;28;20520;-50
2021/11/19 01:58:42;;;;;;;19.57;14.80;;;12.10;99.90;;;;;;5015126;28;20469;-49
2021/11/19 02:01:15;;;;;;;19.67;16.20;;;11.70;99.90;;;;;;5015367;28;20967;-50
2021/11/19 02:03:45;;;;;;;20.20;15.90;;;12.10;99.90;;;;;;5015194;28;20458;-50
2021/11/19 02:06:18;;;;;;;19.07;16.87;;;11.90;99.90;;;;;;5015247;28;20447;-50
2021/11/19 02:08:49;;;;;;;21.80;16.00;;;11.50;99.90;;;;;;5014814;28;20920;-50
2021/11/19 02:11:30;;;;;;;23.40;16.83;;;12.20;99.90;;;;;;5015250;28;20459;-49
2021/11/19 02:14:02;;;;;;;23.13;16.40;;;11.60;99.90;;;;;;5014979;28;20460;-49
2021/11/19 02:16:36;;;;;;;19.93;17.03;;;11.50;99.90;;;;;;5014986;28;20464;-49
2021/11/19 02:19:09;;;;;;;22.20;16.43;;;11.70;99.90;;;;;;5014248;28;20493;-49
2021/11/19 02:21:40;;;;;;;21.80;17.70;;;11.60;99.90;;;;;;5014885;28;20428;-49
2021/11/19 02:24:12;;;;;;;19.60;15.03;;;11.30;99.90;;;;;;5014324;28;20475;-49
2021/11/19 02:26:42;;;;;;;19.33;15.53;;;11.70;99.90;;;;;;5014986;28;20949;-49
2021/11/19 02:29:09;;;;;;;20.27;15.57;;;11.80;99.90;;;;;;5014899;28;20468;-49
2021/11/19 02:31:47;;;;;;;16.40;14.03;;;11.80;99.90;;;;;;5014637;28;20518;-49
2021/11/19 02:34:15;;;;;;;17.33;14.67;;;11.90;99.90;;;;;;5014908;28;20450;-49
2021/11/19 02:36:48;;;;;;;16.90;15.07;;;11.80;99.90;;;;;;5015033;28;20442;-50
2021/11/19 02:39:19;;;;;;;20.43;16.33;;;11.90;99.90;;;;;;5014410;28;20479;-50
2021/11/19 02:41:52;;;;;;;17.33;15.50;;;11.70;99.90;;;;;;5014752;28;20950;-49
2021/11/19 02:44:22;;;;;;;18.30;16.13;;;11.70;99.90;;;;;;5014677;28;20457;-50
2021/11/19 02:46:53;;;;;;;16.43;14.70;;;11.70;99.90;;;;;;5014826;28;21009;-50
2021/11/19 02:49:23;;;;;;;21.20;16.47;;;11.80;99.90;;;;;;5014368;28;20416;-50
2021/11/19 02:51:53;;;;;;;20.53;15.90;;;11.90;99.90;;;;;;5032409;28;20809;-50
2021/11/19 02:54:28;;;;;;;19.37;17.40;;;11.90;99.90;;;;;;5014508;28;20513;-50
2021/11/19 02:56:57;;;;;;;23.43;18.67;;;12.20;99.90;;;;;;5014315;28;20546;-50
2021/11/19 02:59:24;;;;;;;24.03;20.53;;;11.80;99.90;;;;;;5031565;28;20447;-49
2021/11/19 03:01:56;;;;;;;24.10;20.30;;;11.90;99.90;;;;;;5014160;28;20416;-50
2021/11/19 03:04:26;;;;;;;22.90;18.83;;;11.80;99.90;;;;;;5014729;28;20898;-50
2021/11/19 03:06:55;;;;;;;21.37;19.10;;;11.90;99.90;;;;;;5014098;28;20813;-50
2021/11/19 03:09:32;;;;;;;23.40;20.90;;;11.50;99.90;;;;;;5013822;28;20478;-50
2021/11/19 03:11:59;;;;;;;26.57;19.50;;;11.80;99.90;;;;;;5014172;28;20517;-50
2021/11/19 03:14:27;;;;;;;25.27;18.37;;;11.80;99.90;;;;;;5014181;28;20476;-50
2021/11/19 03:16:56;;;;;;;23.63;20.57;;;12.10;99.90;;;;;;5014344;28;20446;-50
2021/11/19 03:19:23;;;;;;;20.87;18.20;;;12.10;99.90;;;;;;5013739;28;20547;-50
2021/11/19 03:21:52;;;;;;;21.30;15.90;;;12.20;99.90;;;;;;5014111;28;20480;-50
2021/11/19 03:24:20;;;;;;;23.07;17.20;;;11.90;99.90;;;;;;5014135;28;20511;-50
2021/11/19 03:26:48;;;;;;;19.00;15.90;;;11.50;99.90;;;;;;5014216;28;21013;-50
2021/11/19 03:29:17;;;;;;;21.17;17.23;;;12.10;99.90;;;;;;5013729;28;20448;-49
2021/11/19 03:31:45;;;;;;;25.00;16.37;;;11.90;99.90;;;;;;5014013;28;20984;-50
2021/11/19 03:34:16;;;;;;;22.13;17.63;;;12.20;99.90;;;;;;5015325;28;20544;-50
2021/11/19 03:36:45;;;;;;;18.50;16.43;;;12.20;99.90;;;;;;5018063;28;20470;-50
2021/11/19 03:39:14;;;;;;;16.70;14.87;;;12.40;99.90;;;;;;5017643;28;20858;-50
2021/11/19 03:41:44;;;;;;;17.83;14.63;;;12.20;99.90;;;;;;5018173;28;20982;-49
2021/11/19 03:44:16;;;;;;;15.43;13.90;;;12.30;99.90;;;;;;5018201;28;20455;-48
2021/11/19 03:46:46;;;;;;;21.57;16.03;;;12.10;99.90;;;;;;5017739;28;20533;-48
2021/11/19 03:49:16;;;;;;;17.50;14.60;;;12.10;99.90;;;;;;5017212;28;20476;-48
2021/11/19 03:51:48;;;;;;;17.63;13.67;;;12.10;99.90;;;;;;5017589;28;20990;-49
2021/11/19 03:54:17;;;;;;;16.83;14.73;;;11.80;99.90;;;;;;5017434;28;20461;-49
2021/11/19 03:56:45;;;;;;;18.93;15.63;;;12.00;99.90;;;;;;5017428;28;20452;-48
2021/11/19 03:59:13;;;;;;;20.43;18.20;;;12.20;99.90;;;;;;5034514;28;21037;-48
2021/11/19 04:01:43;;;;;;;22.23;18.33;;;12.40;99.90;;;;;;5035641;28;20485;-49
2021/11/19 04:04:13;;;;;;;19.57;17.67;;;12.20;99.90;;;;;;5017564;28;20521;-48
2021/11/19 04:06:42;;;;;;;22.13;17.67;;;12.20;99.90;;;;;;5017408;28;20528;-48
2021/11/19 04:09:09;;;;;;;20.70;17.80;;;11.90;99.90;;;;;;5016614;28;20470;-48
2021/11/19 04:11:36;;;;;;;22.60;19.20;;;11.90;99.90;;;;;;5017283;28;20456;-49
2021/11/19 04:14:04;;;;;;;22.37;19.90;;;12.40;99.90;;;;;;5016880;28;20464;-48
2021/11/19 04:16:33;;;;;;;28.63;20.53;;;12.20;99.90;;;;;;5017071;28;20456;-47
2021/11/19 04:19:01;;;;;;;30.10;18.33;;;12.40;99.90;;;;;;5016541;28;20540;-48
2021/11/19 04:21:31;;;;;;;23.87;18.20;;;12.10;99.90;;;;;;5016792;28;20727;-49
2021/11/19 04:23:59;;;;;;;23.67;17.83;;;12.20;99.90;;;;;;5016517;28;20458;-48
2021/11/19 04:26:30;;;;;;;24.10;18.90;;;12.10;99.90;;;;;;5016644;28;20450;-48
2021/11/19 04:28:57;;;;;;;24.57;17.70;;;12.20;99.90;;;;;;5016232;28;20570;-49
2021/11/19 04:31:44;;;;;;;20.97;16.10;;;11.80;99.90;;;;;;5033996;28;20461;-49
2021/11/19 04:34:12;;;;;;;20.80;14.57;;;11.70;99.90;;;;;;5016861;28;20470;-48
2021/11/19 04:36:40;;;;;;;20.20;15.33;;;11.80;99.90;;;;;;5016667;28;20541;-48
2021/11/19 04:39:10;;;;;;;20.73;15.13;;;12.00;99.90;;;;;;5016118;28;20828;-47
2021/11/19 04:41:38;;;;;;;22.57;15.80;;;12.30;99.90;;;;;;5017865;28;20856;-48
2021/11/19 04:44:09;;;;;;;18.33;14.30;;;11.80;99.90;;;;;;5016440;28;20446;-49
2021/11/19 04:46:44;;;;;;;21.40;15.80;;;12.10;99.90;;;;;;5015202;28;20570;-48
2021/11/19 04:49:14;;;;;;;18.73;15.10;;;12.40;99.90;;;;;;5015915;28;20455;-49
2021/11/19 04:51:44;;;;;;;20.50;17.20;;;12.00;99.90;;;;;;5016238;28;20462;-49
2021/11/19 04:54:12;;;;;;;24.33;17.40;;;12.50;99.90;;;;;;5016266;28;20829;-48
2021/11/19 04:56:41;;;;;;;19.33;17.23;;;12.30;99.90;;;;;;5015895;28;20921;-48
2021/11/19 04:59:09;;;;;;;21.97;16.00;;;12.30;99.90;;;;;;5015755;28;20475;-48
2021/11/19 05:01:41;;;;;;;20.13;16.80;;;12.30;99.90;;;;;;5016074;28;20482;-49
2021/11/19 05:04:18;;;;;;;22.13;17.37;;;12.20;99.90;;;;;;5016181;28;20468;-48
2021/11/19 05:06:50;;;;;;;26.97;17.60;;;12.00;99.90;;;;;;5015962;28;20448;-49
2021/11/19 05:09:20;;;;;;;23.53;18.27;;;12.20;99.90;;;;;;5015780;28;20452;-49
2021/11/19 05:11:52;;;;;;;24.23;20.10;;;12.10;99.90;;;;;;5015768;28;20449;-48
2021/11/19 05:14:20;;;;;;;31.47;20.67;;;12.00;99.90;;;;;;5015794;28;20453;-49
2021/11/19 05:16:48;;;;;;;25.80;19.60;;;12.30;99.90;;;;;;5015906;28;20456;-49
2021/11/19 05:19:15;;;;;;;28.63;20.67;;;12.30;99.90;;;;;;5016119;28;20451;-50
2021/11/19 05:21:42;;;;;;;27.10;21.10;;;12.20;99.90;;;;;;5015925;28;20484;-50
2021/11/19 05:24:10;;;;;;;30.60;20.97;;;12.10;99.90;;;;;;5015441;28;20458;-50
2021/11/19 05:26:42;;;;;;;26.97;21.07;;;12.20;99.90;;;;;;5015830;28;20458;-50
2021/11/19 05:29:10;;;;;;;30.10;21.23;;;12.20;99.90;;;;;;5015283;28;20831;-50
2021/11/19 05:31:37;;;;;;;27.20;21.40;;;12.30;99.90;;;;;;5015564;28;20464;-50
2021/11/19 05:34:05;;;;;;;31.60;21.83;;;12.00;99.90;;;;;;5015440;28;20968;-50
2021/11/19 05:36:32;;;;;;;28.07;21.43;;;12.10;99.90;;;;;;5015450;28;20451;-49
2021/11/19 05:39:00;;;;;;;28.97;21.77;;;11.80;99.90;;;;;;5015148;28;20478;-50
2021/11/19 05:41:27;;;;;;;49.30;29.97;;;12.40;99.90;;;;;;5015275;28;20949;-49
2021/11/19 05:43:56;;;;;;;25.67;19.30;;;12.40;99.90;;;;;;5015597;28;20540;-50
2021/11/19 05:46:40;;;;;;;28.97;21.00;;;12.30;99.90;;;;;;5015346;28;20450;-49
2021/11/19 05:49:11;;;;;;;23.67;18.10;;;12.20;99.90;;;;;;5014977;28;20443;-50
2021/11/19 05:51:41;;;;;;;27.60;19.57;;;12.00;99.90;;;;;;5015237;28;20473;-50
2021/11/19 05:54:12;;;;;;;24.53;18.53;;;12.30;99.90;;;;;;5015387;28;20481;-50
2021/11/19 05:56:39;;;;;;;26.07;17.87;;;12.40;99.90;;;;;;5033069;28;20849;-50
2021/11/19 05:59:08;;;;;;;29.50;19.20;;;12.70;99.90;;;;;;5014465;28;20515;-50
2021/11/19 06:01:53;;;;;;;20.53;16.60;;;12.20;99.90;;;;;;5032647;28;20628;-50
2021/11/19 06:04:22;;;;;;;24.50;17.40;;;12.30;99.90;;;;;;5014971;28;20549;-50
2021/11/19 06:07:00;;;;;;;20.37;16.60;;;12.10;99.90;;;;;;5032644;28;20442;-50
2021/11/19 06:09:42;;;;;;;23.07;18.33;;;12.30;99.90;;;;;;5014408;28;20457;-49
2021/11/19 06:12:15;;;;;;;22.77;18.03;;;12.30;99.90;;;;;;5014856;28;20454;-50
2021/11/19 06:14:52;;;;;;;20.87;17.43;;;12.20;99.90;;;;;;5032395;28;20438;-49
2021/11/19 06:17:21;;;;;;;21.63;17.70;;;12.40;99.90;;;;;;5014584;28;20524;-50
2021/11/19 06:19:51;;;;;;;27.43;21.47;;;12.30;99.90;;;;;;5014223;28;20446;-49
2021/11/19 06:22:24;;;;;;;27.07;20.47;;;12.40;99.90;;;;;;5014337;28;20481;-49
2021/11/19 06:24:55;;;;;;;24.60;18.67;;;12.10;99.90;;;;;;5014325;28;20488;-50
2021/11/19 06:27:25;;;;;;;23.80;19.00;;;12.10;99.90;;;;;;5013921;28;20912;-51
2021/11/19 06:29:58;;;;;;;22.93;19.03;;;12.30;99.90;;;;;;5013691;28;20825;-51
2021/11/19 06:32:26;;;;;;;22.93;17.20;;;12.60;99.90;;;;;;5013940;28;20524;-50
2021/11/19 06:34:53;;;;;;;20.87;15.80;;;12.40;99.90;;;;;;5031410;28;20914;-51
2021/11/19 06:37:21;;;;;;;22.37;16.20;;;12.20;99.90;;;;;;5013903;28;20558;-50
2021/11/19 06:40:15;;;;;;;20.90;15.53;;;12.50;99.90;;;;;;5023130;28;20513;-51
2021/11/19 06:43:17;;;;;;;20.83;15.63;;;12.60;99.90;;;;;;5030782;28;20452;-50
2021/11/19 06:45:51;;;;;;;22.60;16.47;;;12.60;99.90;;;;;;5031133;28;20531;-52
2021/11/19 06:48:31;;;;;;;25.50;16.87;;;12.50;99.90;;;;;;5012362;28;20849;-50
2021/11/19 06:51:22;;;;;;;16.73;13.20;;;12.70;99.90;;;;;;5028845;28;20455;-50
2021/11/19 06:54:10;;;;;;;18.33;14.90;;;12.60;99.90;;;;;;5029013;28;20459;-49
2021/11/19 06:57:15;;;;;;;17.60;14.13;;;12.50;99.90;;;;;;5018906;28;20475;-50
2021/11/19 06:59:44;;;;;;;16.50;12.13;;;12.30;99.90;;;;;;5013748;28;20450;-50
2021/11/19 07:02:14;;;;;;;23.00;13.13;;;12.80;99.90;;;;;;5013900;28;20485;-51
2021/11/19 07:04:44;;;;;;;16.90;13.83;;;12.60;99.90;;;;;;5013945;28;20875;-50
2021/11/19 07:07:11;;;;;;;17.93;14.30;;;12.60;99.90;;;;;;5013751;28;20440;-51
2021/11/19 07:09:39;;;;;;;14.97;12.77;;;12.50;99.90;;;;;;5012497;28;20490;-51
2021/11/19 07:12:09;;;;;;;17.50;14.10;;;12.40;99.90;;;;;;5013310;28;20460;-50
2021/11/19 07:14:40;;;;;;;16.90;13.03;;;12.80;99.90;;;;;;5013469;28;21029;-50
2021/11/19 07:17:13;;;;;;;15.60;12.30;;;12.80;99.90;;;;;;5012908;28;20859;-50
2021/11/19 07:19:44;;;;;;;15.73;12.60;;;12.80;99.90;;;;;;5013019;28;20441;-50
2021/11/19 07:22:11;;;;;;;15.90;12.07;;;12.70;99.90;;;;;;5013377;28;20472;-50
2021/11/19 07:24:40;;;;;;;17.97;13.57;;;13.40;99.90;;;;;;5013824;28;20446;-50
2021/11/19 07:27:12;;;;;;;15.63;12.53;;;12.70;99.90;;;;;;5013641;28;20451;-49
2021/11/19 07:29:40;;;;;;;17.50;13.67;;;12.90;99.90;;;;;;5012519;28;20917;-50
2021/11/19 07:32:07;;;;;;;18.40;12.97;;;12.40;99.90;;;;;;5031290;28;20465;-50
2021/11/19 07:34:56;;;;;;;15.00;11.97;;;13.00;99.90;;;;;;5013207;28;20539;-51
2021/11/19 07:37:36;;;;;;;17.27;12.57;;;13.10;99.90;;;;;;5013409;28;20497;-51
2021/11/19 07:40:29;;;;;;;14.43;12.90;;;12.80;99.90;;;;;;5030554;28;20410;-51
2021/11/19 07:43:19;;;;;;;13.87;12.47;;;12.30;99.90;;;;;;5013224;28;20961;-51
2021/11/19 07:46:28;;;;;;;14.90;12.30;;;12.40;99.90;;;;;;4969828;28;20522;-51
2021/11/19 07:49:03;;;;;;;12.40;10.90;;;12.70;99.90;;;;;;4953501;28;20534;-50
2021/11/19 07:51:34;;;;;;;13.63;12.20;;;12.80;99.90;;;;;;4985951;28;20539;-50
2021/11/19 07:54:01;;;;;;;13.60;11.83;;;12.80;99.90;;;;;;5013096;28;20489;-50
2021/11/19 07:56:32;;;;;;;17.60;12.10;;;12.80;99.90;;;;;;5030629;28;20505;-50
2021/11/19 07:59:01;;;;;;;13.57;12.10;;;12.90;99.90;;;;;;5012621;28;20531;-51
2021/11/19 08:01:28;;;;;;;13.53;11.30;;;12.80;99.90;;;;;;5013378;28;20566;-51
2021/11/19 08:03:55;;;;;;;15.43;12.47;;;13.00;99.90;;;;;;5013121;28;20501;-51
2021/11/19 08:06:26;;;;;;;14.50;11.63;;;13.00;99.90;;;;;;5012782;28;20459;-51
2021/11/19 08:09:07;;;;;;;11.80;10.20;;;13.00;99.90;;;;;;5012644;28;20555;-51
2021/11/19 08:11:35;;;;;;;15.60;10.80;;;12.90;99.90;;;;;;5013028;28;20587;-51
2021/11/19 08:14:02;;;;;;;15.00;11.23;;;13.00;99.90;;;;;;5013433;28;20464;-50
2021/11/19 08:16:37;;;;;;;12.83;9.93;;;13.00;99.90;;;;;;5013043;28;20494;-50
2021/11/19 08:19:24;;;;;;;15.10;11.70;;;12.90;99.90;;;;;;5012580;28;20458;-50
2021/11/19 08:21:54;;;;;;;15.47;10.67;;;12.70;99.90;;;;;;5034430;28;20555;-51
2021/11/19 08:24:22;;;;;;;13.10;11.57;;;13.00;99.90;;;;;;5016660;28;20444;-51
2021/11/19 08:26:52;;;;;;;12.00;10.33;;;13.00;99.90;;;;;;5034374;28;20420;-51
2021/11/19 08:29:26;;;;;;;12.87;10.20;;;13.10;99.90;;;;;;5016199;28;20454;-50
2021/11/19 08:31:54;;;;;;;13.40;10.80;;;13.10;99.90;;;;;;5016400;28;20454;-50
2021/11/19 08:34:22;;;;;;;12.57;10.40;;;13.10;99.90;;;;;;5016531;28;20508;-50
2021/11/19 08:36:49;;;;;;;10.37;9.33;;;13.40;99.90;;;;;;5034313;28;20492;-52
2021/11/19 08:39:19;;;;;;;13.87;11.77;;;12.90;99.90;;;;;;5015222;28;20526;-50
2021/11/19 08:41:48;;;;;;;12.50;10.93;;;13.30;99.90;;;;;;5016531;28;21011;-50
2021/11/19 08:44:15;;;;;;;12.37;11.00;;;13.20;99.90;;;;;;5034207;28;20860;-50
2021/11/19 08:46:44;;;;;;;13.83;12.23;;;13.10;99.90;;;;;;5015641;28;20493;-51
2021/11/19 08:49:13;;;;;;;15.60;12.40;;;13.10;99.90;;;;;;5015248;28;20559;-51
2021/11/19 08:51:41;;;;;;;12.70;10.60;;;13.10;99.90;;;;;;5049656;28;20494;-50
2021/11/19 08:54:11;;;;;;;12.17;10.97;;;13.20;99.90;;;;;;5053709;28;20624;-51
2021/11/19 08:56:41;;;;;;;15.37;11.60;;;13.10;99.90;;;;;;5035457;28;20489;-51
2021/11/19 08:59:11;;;;;;;13.40;11.97;;;12.80;99.90;;;;;;5053400;28;20464;-51
2021/11/19 09:01:40;;;;;;;13.30;10.53;;;13.10;99.90;;;;;;5053767;28;20469;-51
2021/11/19 09:04:10;;;;;;;18.87;11.87;;;13.40;99.90;;;;;;5053994;28;20492;-51
2021/11/19 09:06:37;;;;;;;13.47;11.80;;;12.80;99.90;;;;;;5035922;28;20553;-50
2021/11/19 09:09:04;;;;;;;15.93;11.37;;;13.20;99.90;;;;;;5054607;28;20501;-51
2021/11/19 09:11:32;;;;;;;13.00;10.67;;;13.20;99.90;;;;;;5036180;28;20456;-51
2021/11/19 09:13:59;;;;;;;13.03;10.80;;;13.30;99.90;;;;;;5035576;28;20453;-49
2021/11/19 09:16:31;;;;;;;20.63;12.20;;;13.30;99.90;;;;;;5035698;28;20758;-50
2021/11/19 09:19:17;;;;;;;13.40;11.50;;;13.50;99.90;;;;;;5052842;28;20871;-51
2021/11/19 09:21:48;;;;;;;14.00;11.20;;;13.50;99.90;;;;;;5053220;28;20481;-50
2021/11/19 09:24:18;;;;;;;14.80;11.93;;;13.10;99.90;;;;;;5053161;28;20525;-50
2021/11/19 09:26:48;;;;;;;16.73;13.20;;;13.40;99.90;;;;;;5035988;28;20457;-51
2021/11/19 09:29:17;;;;;;;15.63;11.77;;;13.30;99.90;;;;;;5053158;28;20537;-50
2021/11/19 09:31:47;;;;;;;16.80;12.30;;;13.40;99.90;;;;;;5053204;28;20430;-50
2021/11/19 09:34:15;;;;;;;12.63;10.93;;;13.30;99.90;;;;;;5053703;28;20905;-51
2021/11/19 09:36:42;;;;;;;14.83;12.87;;;13.40;99.90;;;;;;5035761;28;20670;-50
2021/11/19 09:39:12;;;;;;;18.30;15.37;;;13.00;99.90;;;;;;5035327;28;20499;-50
2021/11/19 09:41:53;;;;;;;14.03;12.53;;;13.30;99.90;;;;;;5053501;28;20478;-51
2021/11/19 09:44:52;;;;;;;13.50;12.10;;;13.30;99.90;;;;;;5034479;28;20496;-51
2021/11/19 09:47:51;;;;;;;15.83;12.10;;;13.30;99.90;;;;;;5052954;28;20501;-51
2021/11/19 09:50:51;;;;;;;12.93;10.90;;;13.30;99.90;;;;;;5018574;28;20469;-51
2021/11/19 09:53:48;;;;;;;14.07;12.13;;;13.40;99.90;;;;;;5030232;28;20493;-50
2021/11/19 09:56:29;;;;;;;13.83;12.17;;;13.40;99.90;;;;;;5015164;28;20498;-51
2021/11/19 09:59:07;;;;;;;16.17;12.53;;;13.40;99.90;;;;;;5040709;28;20884;-53
2021/11/19 10:01:56;;;;;;;18.20;12.33;;;13.40;99.90;;;;;;5035075;28;20660;-50
2021/11/19 10:04:53;;;;;;;16.00;12.93;;;13.50;99.90;;;;;;5052767;28;20448;-51
2021/11/19 10:07:29;;;;;;;16.30;14.60;;;13.70;99.90;;;;;;5052371;28;20556;-51
2021/11/19 10:10:25;;;;;;;19.20;13.00;;;13.50;99.90;;;;;;5052167;28;20906;-50
2021/11/19 10:12:59;;;;;;;18.13;13.33;;;13.60;99.90;;;;;;5052867;28;20791;-50
2021/11/19 10:15:35;;;;;;;14.63;13.13;;;13.40;99.90;;;;;;5052880;28;20438;-50
2021/11/19 10:18:08;;;;;;;17.83;14.30;;;13.60;99.90;;;;;;5052408;28;20493;-50
2021/11/19 10:20:39;;;;;;;19.70;15.00;;;13.70;99.90;;;;;;5052527;28;20430;-51
2021/11/19 10:23:09;;;;;;;17.27;15.40;;;13.50;99.90;;;;;;5052594;28;20551;-50
2021/11/19 10:25:41;;;;;;;24.37;18.07;;;12.70;99.90;;;;;;5052675;28;20426;-50
2021/11/19 10:28:15;;;;;;;18.90;14.90;;;13.50;99.90;;;;;;5051532;28;20450;-52
2021/11/19 10:30:45;;;;;;;18.03;13.03;;;13.60;99.90;;;;;;5052159;28;20438;-51
2021/11/19 10:33:16;;;;;;;20.30;14.80;;;13.30;99.90;;;;;;5055582;28;20425;-48
2021/11/19 10:36:04;;;;;;;19.43;14.67;;;13.10;99.90;;;;;;5034299;28;20454;-49
2021/11/19 10:39:04;;;;;;;17.80;14.63;;;13.40;99.90;;;;;;5051847;28;20496;-50
2021/11/19 10:42:04;;;;;;;18.33;14.73;;;13.50;99.90;;;;;;5051626;28;20494;-50
2021/11/19 10:45:21;;;;;;;16.90;15.17;;;13.50;99.90;;;;;;5051137;28;20507;-49
2021/11/19 10:48:23;;;;;;;19.30;15.60;;;13.40;99.90;;;;;;5033129;28;20856;-50
2021/11/19 10:51:23;;;;;;;20.07;16.60;;;13.50;99.90;;;;;;5051921;28;20533;-49
2021/11/19 10:54:28;;;;;;;18.77;15.40;;;13.50;99.90;;;;;;5031043;28;20490;-48
2021/11/19 10:57:05;;;;;;;25.43;18.30;;;13.50;99.90;;;;;;5034454;28;20837;-49
2021/11/19 10:59:39;;;;;;;22.13;16.00;;;13.30;99.90;;;;;;5033477;28;20428;-49
2021/11/19 11:02:32;;;;;;;28.20;15.97;;;13.50;99.90;;;;;;5033311;28;21048;-50
2021/11/19 11:05:02;;;;;;;18.37;16.40;;;13.10;99.90;;;;;;5033278;28;20457;-51
2021/11/19 11:07:31;;;;;;;25.17;17.63;;;13.60;99.90;;;;;;5033674;28;20474;-50
2021/11/19 11:10:05;;;;;;;23.90;17.00;;;13.60;99.90;;;;;;5032962;28;20568;-51
2021/11/19 11:12:46;;;;;;;21.10;16.33;;;13.20;99.90;;;;;;5033245;28;20549;-50
2021/11/19 11:15:23;;;;;;;31.57;21.07;;;13.60;99.90;;;;;;5033845;28;20469;-50
2021/11/19 11:17:58;;;;;;;19.10;16.90;;;13.20;99.90;;;;;;5070000;22;20496;-50
2021/11/19 11:20:29;;;;;;;23.30;17.80;;;13.80;99.90;;;;;;5071120;28;20523;-50
2021/11/19 11:23:00;;;;;;;23.37;18.40;;;13.60;99.90;;;;;;5070709;28;20555;-49
2021/11/19 11:25:29;;;;;;;25.00;18.67;;;13.90;99.90;;;;;;5070828;28;20521;-50
2021/11/19 11:28:11;;;;;;;24.93;17.87;;;13.90;99.90;;;;;;5070389;28;20796;-50
2021/11/19 11:30:56;;;;;;;23.50;17.60;;;13.60;99.90;;;;;;5070570;28;20956;-50
2021/11/19 11:33:26;;;;;;;26.43;18.17;;;13.70;99.90;;;;;;5070898;28;20433;-51
2021/11/19 11:35:56;;;;;;;26.97;18.53;;;13.60;99.90;;;;;;5070564;28;20531;-50
2021/11/19 11:38:30;;;;;;;23.33;18.17;;;13.80;99.90;;;;;;5051872;28;20504;-51
2021/11/19 11:41:13;;;;;;;24.17;16.17;;;13.70;99.90;;;;;;5070598;28;20460;-50
2021/11/19 11:43:44;;;;;;;22.43;15.10;;;13.90;99.90;;;;;;5052726;28;20536;-51
2021/11/19 11:46:30;;;;;;;19.03;15.00;;;13.70;99.90;;;;;;5070265;28;20503;-51
2021/11/19 11:49:23;;;;;;;21.30;15.37;;;14.00;99.90;;;;;;5051436;28;20477;-50
2021/11/19 11:52:06;;;;;;;22.30;15.10;;;13.60;99.90;;;;;;5052433;28;20459;-50
2021/11/19 11:54:39;;;;;;;19.30;16.40;;;13.80;99.90;;;;;;5052544;28;20458;-50
2021/11/19 11:57:19;;;;;;;21.20;16.53;;;13.50;99.90;;;;;;5055881;28;20541;-50
2021/11/19 11:59:57;;;;;;;16.50;14.03;;;13.70;99.90;;;;;;5073830;28;20508;-50
2021/11/19 12:02:37;;;;;;;19.23;15.63;;;13.60;99.90;;;;;;5073718;28;20521;-50
2021/11/19 12:05:32;;;;;;;17.17;14.40;;;13.60;99.90;;;;;;5074140;28;20486;-50
2021/11/19 12:08:15;;;;;;;22.30;15.10;;;13.70;99.90;;;;;;5048268;28;20473;-49
2021/11/19 12:10:57;;;;;;;25.73;17.00;;;14.10;99.90;;;;;;5055709;28;20467;-51
2021/11/19 12:13:29;;;;;;;24.67;16.87;;;13.90;99.90;;;;;;5073339;28;20425;-50
2021/11/19 12:16:16;;;;;;;18.40;15.80;;;14.30;99.90;;;;;;5055610;28;20495;-51
2021/11/19 12:18:50;;;;;;;21.37;15.30;;;14.20;99.90;;;;;;5072955;28;20468;-51
2021/11/19 12:21:23;;;;;;;18.17;14.80;;;13.90;99.90;;;;;;5073655;28;20888;-51
2021/11/19 12:23:55;;;;;;;19.17;15.87;;;13.80;99.90;;;;;;5074162;28;20478;-50
2021/11/19 12:26:46;;;;;;;17.53;12.80;;;14.20;99.90;;;;;;5073458;28;20432;-51
2021/11/19 12:29:22;;;;;;;23.27;11.83;;;14.10;99.90;;;;;;5072826;28;20498;-50
2021/11/19 12:31:59;;;;;;;22.83;12.57;;;14.30;99.90;;;;;;5073430;28;20487;-50
2021/11/19 12:34:31;;;;;;;17.93;12.23;;;13.90;99.90;;;;;;5073593;28;20844;-50
2021/11/19 12:37:01;;;;;;;14.00;10.37;;;13.50;99.90;;;;;;5073853;28;20441;-50
2021/11/19 12:39:30;;;;;;;16.73;13.00;;;14.20;99.90;;;;;;5055590;28;20530;-52
2021/11/19 12:42:02;;;;;;;18.40;11.30;;;14.00;99.90;;;;;;5073889;28;20434;-51
2021/11/19 12:44:49;;;;;;;17.93;11.27;;;13.90;99.90;;;;;;5055836;28;20470;-51
2021/11/19 12:47:54;;;;;;;8.93;7.70;;;13.80;99.90;;;;;;5073697;28;20485;-52
2021/11/19 12:50:28;;;;;;;12.50;7.60;;;13.90;99.90;;;;;;5055035;28;20532;-51
2021/11/19 12:53:28;;;;;;;12.13;8.27;;;13.60;99.90;;;;;;5071628;28;20446;-51
2021/11/19 12:56:17;;;;;;;8.60;6.90;;;13.90;99.90;;;;;;5064296;28;20472;-51
2021/11/19 12:58:47;;;;;;;12.60;9.50;;;13.90;99.90;;;;;;5072379;28;20464;-51
2021/11/19 13:01:28;;;;;;;15.50;10.60;;;14.10;99.90;;;;;;5073087;28;20437;-50